Latest Weather Observations for Roma

IDQ60801

Issued at 1:02 pm EST Sunday 29 March 2015 (issued every 30 minutes, with the page automatically refreshed every 10 minutes)

About weather observations | Map of weather stations | Latest weather observations for QLD | Other Formats
Station Details ID: 043091 Name: ROMA AIRPORT Lat: -26.55 Lon: 148.77 Height: 307.38 m
Data from the previous 72 hours. | See also: Recent months at Roma
Date/Time
EST
Temp
°C
App
Temp
°C
Dew
Point
Rel
Hum
%
Delta-T
°C
Wind Press
QNH
hPa
Press
MSL
hPa
Rain
since 9 am
mm
Dir
 
Spd
km/h
Gust
km/h
Spd
kts
Gust
kts
29/01:00pm 30.2 28.8 13.5 36 10.1 N 13 20 7 11 1020.2 1018.6 0.0
29/12:30pm 31.1 29.8 14.7 37 10.1 NE 15 24 8 13 1020.7 1019.1 0.0
29/12:00pm 30.3 28.7 16.0 42 9.0 N 19 26 10 14 1021.1 1019.5 0.0
29/11:30am 30.3 28.9 17.0 44 8.5 NNE 20 28 11 15 1021.5 1019.9 0.0
29/11:00am 28.8 27.5 17.3 49 7.3 N 20 33 11 18 1021.8 1020.2 0.0
29/10:30am 27.3 25.9 16.9 53 6.6 N 20 30 11 16 1021.9 1020.3 0.0
29/10:00am 27.1 25.6 17.8 56 5.9 N 22 50 12 27 1022.1 1020.5 0.0
29/09:30am 27.9 25.6 17.7 53 6.5 N 26 37 14 20 1022.2 1020.6 0.0
29/09:00am 26.5 24.8 18.1 60 5.4 NNE 24 32 13 17 1022.5 1020.9 0.0
29/08:30am 24.4 24.3 16.1 60 5.1 NNE 11 17 6 9 1022.4 1020.8 0.0
29/08:00am 22.1 23.3 13.7 59 4.9 CALM 0 6 0 3 1022.2 1020.6 0.0
29/07:30am 19.2 18.1 9.9 55 5.0 WSW 6 7 3 4 1021.8 1020.2 0.0
29/07:00am 16.3 14.3 7.3 55 4.5 SW 7 9 4 5 1021.3 1019.7 0.0
29/06:30am 13.2 12.6 7.2 67 3.0 CALM 0 0 0 0 1020.7 1019.1 0.0
29/06:00am 12.8 12.1 7.0 68 2.8 CALM 0 0 0 0 1020.1 1018.5 0.0
29/05:30am 12.8 11.8 5.5 61 3.5 CALM 0 0 0 0 1019.7 1018.1 0.0
29/05:00am 13.6 12.5 5.3 57 3.9 CALM 0 6 0 3 1019.2 1017.6 0.0
29/04:30am 13.5 10.4 5.7 59 3.7 W 11 13 6 7 1018.8 1017.2 0.0
29/04:00am 12.4 10.3 5.8 64 3.1 SSW 6 9 3 5 1018.6 1017.0 0.0
29/03:30am 12.7 10.5 6.3 65 3.1 NW 7 11 4 6 1018.4 1016.8 0.0
29/03:00am 12.4 11.6 6.5 67 2.8 CALM 0 0 0 0 1018.5 1016.9 0.0
29/02:30am 13.2 11.2 6.3 63 3.3 WSW 6 7 3 4 1018.5 1016.9 0.0
29/02:00am 14.0 12.5 6.8 62 3.5 WNW 4 9 2 5 1018.9 1017.3 0.0
29/01:30am 14.3 13.5 6.6 60 3.8 CALM 0 0 0 0 1019.1 1017.5 0.0
29/01:00am 13.4 11.7 6.0 61 3.6 WSW 4 7 2 4 1019.4 1017.8 0.0
29/12:30am 14.4 13.5 6.0 57 4.1 CALM 0 0 0 0 1019.6 1018.0 0.0
 
Date/Time
EST
Temp
°C
App
Temp
°C
Dew
Point
Rel
Hum
%
Delta-T
°C
Wind Press
QNH
hPa
Press
MSL
hPa
Rain
since 9 am
mm
Dir
 
Spd
km/h
Gust
km/h
Spd
kts
Gust
kts
28/11:30pm 15.7 14.9 6.4 54 4.6 CALM 0 0 0 0 1020.0 1018.4 0.0
28/11:00pm 15.6 14.8 6.3 54 4.6 CALM 0 0 0 0 1020.1 1018.5 0.0
28/10:30pm 15.3 14.4 6.1 54 4.5 CALM 0 6 0 3 1020.2 1018.6 0.0
28/10:00pm 16.6 15.3 4.3 44 5.8 CALM 0 0 0 0 1020.3 1018.7 0.0
28/09:30pm 17.6 16.5 4.9 43 6.2 CALM 0 0 0 0 1020.2 1018.6 0.0
28/09:00pm 18.1 16.7 3.6 38 6.9 CALM 0 0 0 0 1020.0 1018.4 0.0
28/08:30pm 20.2 17.4 2.1 30 8.5 S 6 7 3 4 1020.0 1018.4 0.0
28/08:00pm 20.8 17.1 2.6 30 8.6 SSE 11 13 6 7 1019.9 1018.3 0.0
28/07:30pm 22.3 18.3 2.9 28 9.4 S 13 15 7 8 1019.5 1017.9 0.0
28/07:00pm 22.3 18.8 3.4 29 9.2 SSE 11 13 6 7 1019.1 1017.5 0.0
28/06:30pm 24.6 21.1 3.3 25 10.5 SSE 11 13 6 7 1018.8 1017.2 0.0
28/06:00pm 26.4 22.7 2.3 21 11.8 SE 11 13 6 7 1018.5 1016.9 0.0
28/05:30pm 28.8 24.7 2.1 18 13.3 SSE 13 19 7 10 1018.4 1016.8 0.0
28/05:00pm 30.0 25.8 1.5 16 14.1 SSE 13 19 7 10 1018.0 1016.4 0.0
28/04:30pm 30.5 26.0 1.9 16 14.4 SSE 15 24 8 13 1017.8 1016.2 0.0
28/04:00pm 30.7 27.2 1.1 15 14.7 S 9 24 5 13 1018.0 1016.4 0.0
28/03:30pm 30.6 26.7 1.0 15 14.6 SSE 11 17 6 9 1018.1 1016.5 0.0
28/03:00pm 31.1 27.5 0.5 14 15.0 W 9 24 5 13 1018.3 1016.7 0.0
28/02:30pm 30.6 26.9 0.1 14 14.9 S 9 15 5 8 1018.6 1017.0 0.0
28/02:00pm 30.2 26.1 -0.2 14 14.7 S 11 15 6 8 1019.1 1017.5 0.0
28/01:30pm 30.8 27.1 0.2 14 15.0 NE 9 17 5 9 1019.4 1017.8 0.0
28/01:00pm 29.7 25.5 -0.6 14 14.5 E 11 20 6 11 1019.9 1018.3 0.0
28/12:30pm 29.0 24.8 -1.2 14 14.2 ESE 11 15 6 8 1020.4 1018.8 0.0
28/12:00pm 28.1 24.1 -1.9 14 13.8 E 9 19 5 10 1021.2 1019.6 0.0
28/11:30am 27.9 23.2 -2.0 14 13.8 ESE 13 19 7 10 1021.8 1020.2 0.0
28/11:00am 26.8 22.2 -1.1 16 12.9 SSE 13 19 7 10 1022.3 1020.7 0.0
28/10:30am 26.0 21.5 -0.1 18 12.3 ENE 13 19 7 10 1022.6 1021.0 0.0
28/10:00am 24.9 20.2 1.1 21 11.3 SSE 15 20 8 11 1022.6 1021.0 0.0
28/09:30am 23.4 19.2 1.7 24 10.3 ENE 13 17 7 9 1022.8 1021.2 0.0
28/09:00am 22.1 17.4 0.6 24 9.9 ESE 15 20 8 11 1022.9 1021.3 0.0
28/08:30am 20.4 16.9 1.3 28 8.8 S 9 13 5 7 1022.8 1021.2 0.0
28/08:00am 19.0 15.8 0.6 29 8.3 S 7 11 4 6 1022.6 1021.0 0.0
28/07:30am 17.1 14.4 0.3 32 7.4 SSW 4 7 2 4 1022.1 1020.5 0.0
28/07:00am 13.1 12.0 5.0 58 3.8 CALM 0 0 0 0 1021.9 1020.3 0.0
28/06:30am 11.6 10.3 4.3 61 3.3 CALM 0 6 0 3 1021.6 1020.0 0.0
28/06:00am 10.9 9.5 3.7 61 3.2 CALM 0 0 0 0 1021.3 1019.7 0.0
28/05:30am 11.6 10.2 3.6 58 3.6 CALM 0 0 0 0 1021.0 1019.4 0.0
28/05:00am 12.2 10.8 3.7 56 3.8 CALM 0 0 0 0 1020.8 1019.2 0.0
28/04:30am 12.3 10.9 3.8 56 3.9 CALM 0 0 0 0 1020.6 1018.9 0.0
28/04:00am 13.4 11.5 2.6 48 4.8 SW 2 6 1 3 1020.1 1018.5 0.0
28/03:30am 12.9 9.3 3.0 51 4.5 SW 11 13 6 7 1019.9 1018.3 0.0
28/03:00am 13.6 10.3 2.5 47 5.0 SSW 9 11 5 6 1020.0 1018.4 0.0
28/02:30am 14.1 10.8 2.7 46 5.2 SSW 9 13 5 7 1020.1 1018.5 0.0
28/02:00am 15.2 11.9 2.4 42 5.8 SSW 9 9 5 5 1020.1 1018.5 0.0
28/01:30am 15.4 12.1 2.6 42 5.8 SSW 9 11 5 6 1020.1 1018.5 0.0
28/01:00am 15.2 11.8 2.1 41 5.9 SSW 9 13 5 7 1020.3 1018.7 0.0
28/12:30am 15.7 12.3 1.8 39 6.2 SSW 9 11 5 6 1020.4 1018.8 0.0
28/12:00am 16.6 13.1 1.5 36 6.8 S 9 13 5 7 1020.7 1019.1 0.0
 
Date/Time
EST
Temp
°C
App
Temp
°C
Dew
Point
Rel
Hum
%
Delta-T
°C
Wind Press
QNH
hPa
Press
MSL
hPa
Rain
since 9 am
mm
Dir
 
Spd
km/h
Gust
km/h
Spd
kts
Gust
kts
27/11:30pm 16.7 13.7 2.0 37 6.7 S 7 9 4 5 1020.7 1019.1 0.0
27/11:00pm 17.4 14.1 2.6 37 6.8 S 9 11 5 6 1020.8 1019.2 0.0
27/10:30pm 18.1 14.9 2.8 36 7.2 S 9 11 5 6 1021.1 1019.5 0.0
27/10:00pm 18.4 15.7 3.5 37 7.1 S 7 9 4 5 1021.1 1019.5 0.0
27/09:30pm 18.5 14.9 3.2 36 7.2 SSW 11 13 6 7 1021.1 1019.5 0.0
27/09:00pm 19.4 16.3 3.6 35 7.6 SSW 9 11 5 6 1021.0 1019.4 0.0
27/08:30pm 19.7 16.6 3.4 34 7.8 SSW 9 11 5 6 1020.7 1019.1 0.0
27/08:00pm 22.2 18.4 1.8 26 9.6 S 11 15 6 8 1020.6 1018.9 0.0
27/07:30pm 23.2 19.2 2.7 26 9.9 S 13 17 7 9 1020.3 1018.7 0.0
27/07:00pm 23.7 19.3 2.5 25 10.3 S 15 19 8 10 1020.0 1018.4 0.0
27/06:30pm 23.9 19.6 3.2 26 10.2 S 15 17 8 9 1019.7 1018.1 0.0
27/06:00pm 25.4 20.6 2.8 23 11.1 SSE 17 22 9 12 1019.4 1017.8 0.0
27/05:30pm 26.8 21.6 2.7 21 12.0 SSE 19 26 10 14 1019.1 1017.5 0.0
27/05:00pm 27.7 22.3 2.7 20 12.5 SSE 20 28 11 15 1018.9 1017.3 0.0
27/04:30pm 28.3 23.2 3.2 20 12.7 SSE 19 30 10 16 1018.7 1017.1 0.0
27/04:00pm 28.6 23.2 2.7 19 13.0 SSE 20 32 11 17 1018.6 1017.0 0.0
27/03:30pm 28.7 24.1 3.5 20 12.9 SSW 17 24 9 13 1018.6 1017.0 0.0
27/03:00pm 28.6 23.4 2.7 19 13.0 SSE 19 28 10 15 1018.8 1017.2 0.0
27/02:30pm 28.9 24.3 3.7 20 12.9 SSE 17 28 9 15 1019.1 1017.5 0.0
27/02:00pm 28.0 22.9 3.0 20 12.6 S 19 35 10 19 1019.5 1017.9 0.0
27/01:30pm 28.0 22.8 2.2 19 12.8 SSW 19 32 10 17 1020.1 1018.5 0.0
27/01:00pm 27.3 22.3 3.7 22 11.9 S 19 28 10 15 1020.4 1018.8 0.0
27/12:30pm 28.6 23.6 3.5 20 12.8 SSE 19 26 10 14 1021.0 1019.4 0.0
27/12:00pm 26.6 21.4 2.5 21 11.9 SSE 19 26 10 14 1021.6 1020.0 0.0
27/11:30am 26.4 21.2 3.6 23 11.5 S 20 35 11 19 1022.1 1020.5 0.0
27/11:00am 26.5 21.9 3.7 23 11.5 S 17 26 9 14 1022.6 1021.0 0.0
27/10:30am 25.1 19.9 2.5 23 11.1 SSE 19 30 10 16 1022.9 1021.3 0.0
27/10:00am 24.4 19.2 2.5 24 10.6 SSE 19 28 10 15 1023.0 1021.4 0.0
27/09:30am 23.4 18.0 2.3 25 10.2 SSE 20 26 11 14 1023.0 1021.4 0.0
27/09:00am 22.7 17.3 2.2 26 9.8 S 20 30 11 16 1023.0 1021.4 0.0
27/08:30am 21.6 15.7 1.8 27 9.3 S 22 32 12 17 1022.9 1021.3 0.0
27/08:00am 20.1 14.9 2.5 31 8.3 SSW 19 24 10 13 1022.7 1021.1 0.0
27/07:30am 18.9 14.6 3.1 35 7.5 SSW 15 20 8 11 1022.4 1020.8 0.0
27/07:00am 17.4 13.7 4.4 42 6.2 SW 13 17 7 9 1021.9 1020.3 0.0
27/06:30am 14.1 11.4 5.5 56 4.1 WSW 9 11 5 6 1021.7 1020.1 0.0
27/06:00am 14.3 11.1 5.1 54 4.4 SW 11 11 6 6 1021.4 1019.8 0.0
27/05:30am 15.5 13.2 4.8 49 5.1 SSW 6 7 3 4 1020.9 1019.3 0.0
27/05:00am 15.5 13.0 3.9 46 5.4 SSW 6 7 3 4 1020.6 1018.9 0.0
27/04:30am 15.6 12.2 4.0 46 5.5 SSW 11 13 6 7 1020.3 1018.7 0.0
27/04:00am 16.3 13.2 3.4 42 6.0 SSW 9 11 5 6 1020.1 1018.5 0.0
27/03:30am 17.5 14.2 2.3 36 7.0 S 9 11 5 6 1020.0 1018.4 0.0
27/03:00am 18.6 14.8 1.6 32 7.8 S 11 13 6 7 1019.8 1018.2 0.0
27/02:30am 19.4 15.5 1.4 30 8.3 S 11 17 6 9 1019.9 1018.3 0.0
27/02:00am 20.4 15.8 1.3 28 8.8 S 15 20 8 11 1020.0 1018.4 0.0
27/01:30am 20.1 16.0 2.0 30 8.5 S 13 17 7 9 1020.2 1018.6 0.0
27/01:00am 19.7 16.8 2.6 32 8.0 S 7 11 4 6 1020.3 1018.7 0.0
27/12:30am 20.2 16.7 3.4 33 8.1 SSW 11 15 6 8 1020.2 1018.6 0.0
27/12:00am 19.2 16.3 6.7 44 6.3 SSW 11 13 6 7 1020.4 1018.8 0.0
 
Date/Time
EST
Temp
°C
App
Temp
°C
Dew
Point
Rel
Hum
%
Delta-T
°C
Wind Press
QNH
hPa
Press
MSL
hPa
Rain
since 9 am
mm
Dir
 
Spd
km/h
Gust
km/h
Spd
kts
Gust
kts
26/11:30pm 19.5 17.1 6.9 44 6.5 SSW 9 13 5 7 1020.6 1018.9 0.0
26/11:00pm 20.3 17.9 7.0 42 6.8 SSW 9 11 5 6 1020.6 1018.9 0.0
26/10:30pm 21.3 18.1 6.8 39 7.5 SSW 13 15 7 8 1020.4 1018.8 0.0
26/10:00pm 20.5 17.8 7.5 43 6.8 SW 11 13 6 7 1020.4 1018.8 0.0
26/09:30pm 21.5 18.3 7.0 39 7.5 SSW 13 15 7 8 1020.4 1018.8 0.0
26/09:00pm 21.5 18.3 7.0 39 7.5 SW 13 15 7 8 1020.3 1018.7 0.0
26/08:30pm 23.2 19.4 6.0 33 8.9 SSW 15 17 8 9 1019.9 1018.3 0.0
26/08:00pm 23.6 20.3 6.4 33 8.9 SSW 13 15 7 8 1019.8 1018.2 0.0
26/07:30pm 22.5 19.1 5.9 34 8.5 SSW 13 13 7 7 1019.6 1018.0 0.0
26/07:00pm 25.1 21.9 5.3 28 10.2 SSW 11 15 6 8 1019.3 1017.7 0.0
26/06:30pm 24.9 21.5 5.7 29 9.9 SW 13 15 7 8 1018.9 1017.3 0.0
26/06:00pm 27.4 23.1 5.1 24 11.6 SSW 17 20 9 11 1018.2 1016.6 0.0
26/05:30pm 28.8 24.5 6.8 25 11.9 SSW 19 26 10 14 1017.3 1015.6 0.0
26/05:00pm 30.2 25.9 6.8 23 12.7 SSW 19 28 10 15 1017.3 1015.6 0.0
26/04:30pm 30.6 25.8 5.8 21 13.3 SSW 20 30 11 16 1017.2 1015.5 0.0
26/04:00pm 31.1 27.3 7.5 23 13.0 SSW 17 24 9 13 1016.9 1015.3 0.0
26/03:30pm 30.9 26.2 5.3 20 13.6 S 19 28 10 15 1016.8 1015.2 0.0
26/03:00pm 32.0 27.5 6.2 20 14.0 S 19 30 10 16 1016.8 1015.2 0.0
26/02:30pm 31.4 28.1 6.5 21 13.6 S 13 20 7 11 1017.2 1015.5 0.0
26/02:00pm 31.4 27.0 6.5 21 13.6 SSW 19 26 10 14 1017.4 1015.7 0.0
26/01:30pm 31.0 27.8 6.8 22 13.2 SSE 13 24 7 13 1017.7 1016.0 0.0

Other Formats:

Comma delimited format used in spreadsheet applications
http://www.bom.gov.au/fwo/IDQ60801/IDQ60801.94515.axf

JavaScript Object Notation format (JSON) in row-major order
http://www.bom.gov.au/fwo/IDQ60801/IDQ60801.94515.json